Time;durP1;ratioP1;P1;durP2;ratioP2;P2;SDS_P1;SDS_P2;PMS_P1;PMS_P2;Temp;Humidity;BMP_temperature;BMP_pressure;BME280_temperature;BME280_humidity;BME280_pressure;Samples;Min_cycle;Max_cycle;Signal;HPM_P1;HPM_P2
2023/05/03 00:01:35;;;;;;;7.97;7.18;;;;;;;8.27;95.23;99548.38;4103739;28;20293;-59
2023/05/03 00:03:38;;;;;;;10.20;7.55;;;;;;;8.22;95.54;99542.75;4122346;28;20646;-58
2023/05/03 00:05:40;;;;;;;8.77;8.07;;;;;;;8.10;96.19;99541.66;4122643;28;20272;-58
2023/05/03 00:07:43;;;;;;;8.43;7.68;;;;;;;8.10;95.72;99550.66;4123034;28;20206;-59
2023/05/03 00:09:44;;;;;;;10.18;8.45;;;;;;;8.10;95.47;99544.38;4123338;28;20236;-59
2023/05/03 00:11:46;;;;;;;8.25;7.55;;;;;;;8.08;95.84;99549.19;4121095;28;20648;-59
2023/05/03 00:13:47;;;;;;;7.90;7.18;;;;;;;8.03;95.87;99546.25;4122324;28;20206;-59
2023/05/03 00:15:50;;;;;;;7.25;6.70;;;;;;;8.01;96.48;99542.91;4122074;28;20284;-59
2023/05/03 00:17:51;;;;;;;6.70;6.15;;;;;;;8.04;96.59;99531.56;4123952;28;20202;-59
2023/05/03 00:19:55;;;;;;;8.55;7.43;;;;;;;7.87;96.32;99535.75;4105670;28;20258;-59
2023/05/03 00:21:56;;;;;;;7.20;6.57;;;;;;;7.80;96.61;99533.03;4125286;28;20242;-59
2023/05/03 00:23:58;;;;;;;7.60;6.88;;;;;;;7.79;96.97;99533.22;4124494;28;20261;-58
2023/05/03 00:25:59;;;;;;;7.65;7.05;;;;;;;7.73;96.99;99539.50;4125209;28;20210;-59
2023/05/03 00:28:01;;;;;;;7.78;7.18;;;;;;;7.73;96.99;99539.50;4126539;28;20316;-58
2023/05/03 00:30:03;;;;;;;7.80;6.90;;;;;;;7.81;97.02;99534.69;4125897;28;20597;-58
2023/05/03 00:32:07;;;;;;;8.15;7.40;;;;;;;7.77;97.21;99536.19;4109006;28;20234;-59
2023/05/03 00:34:09;;;;;;;7.68;7.18;;;;;;;7.71;97.35;99525.25;4126232;28;20237;-58
2023/05/03 00:36:12;;;;;;;7.95;7.32;;;;;;;7.63;97.28;99525.44;4123170;28;20289;-59
2023/05/03 00:38:14;;;;;;;8.80;7.88;;;;;;;7.56;97.90;99527.31;4124661;28;20232;-59
2023/05/03 00:40:17;;;;;;;13.85;9.32;;;;;;;7.57;97.96;99518.09;4124203;28;20280;-59
2023/05/03 00:42:19;;;;;;;9.07;8.43;;;;;;;7.54;97.70;99515.78;4126361;28;20207;-59
2023/05/03 00:44:20;;;;;;;8.63;7.93;;;;;;;7.56;98.43;99511.00;4123777;28;20220;-59
2023/05/03 00:46:22;;;;;;;8.88;8.05;;;;;;;7.48;97.98;99506.56;4125806;28;20671;-59
2023/05/03 00:48:24;;;;;;;8.93;8.20;;;;;;;7.51;98.22;99513.47;4107088;28;20239;-59
2023/05/03 00:50:25;;;;;;;9.48;8.07;;;;;;;7.50;97.81;99506.38;4107567;28;20231;-59
2023/05/03 00:52:27;;;;;;;12.40;7.82;;;;;;;7.58;97.99;99506.16;4107311;28;20203;-58
2023/05/03 00:54:31;;;;;;;9.30;8.52;;;;;;;7.51;97.72;99508.03;4106523;28;20220;-58
2023/05/03 00:56:33;;;;;;;7.68;7.10;;;;;;;7.48;97.86;99513.91;4109729;28;20217;-59
2023/05/03 00:58:51;;;;;;;9.68;8.05;;;;;;;7.47;98.28;99501.31;4128414;28;20325;-58
2023/05/03 01:00:53;;;;;;;8.55;7.78;;;;;;;7.43;98.30;99505.50;4127906;28;20202;-59
2023/05/03 01:02:54;;;;;;;7.30;6.70;;;;;;;7.34;97.91;99501.28;4110056;28;20210;-59
2023/05/03 01:04:56;;;;;;;8.43;7.72;;;;;;;7.35;98.40;99502.97;4129904;28;20210;-59
2023/05/03 01:07:23;;;;;;;7.75;7.05;;;;;;;7.42;97.99;99495.66;4125976;28;20627;-58
2023/05/03 01:09:38;;;;;;;9.70;6.28;;;;;;;7.39;97.97;99504.22;4123512;28;20226;-57
2023/05/03 01:12:05;;;;;;;8.20;7.53;;;;;;;7.19;98.55;99489.72;4124637;28;20301;-58
2023/05/03 01:14:26;;;;;;;6.28;5.80;;;;;;;7.12;98.45;99492.44;4119664;28;20214;-59
2023/05/03 01:16:36;;;;;;;7.35;6.75;;;;;;;7.14;98.51;99494.94;4126038;28;20195;-58
2023/05/03 01:18:39;;;;;;;7.18;6.57;;;;;;;7.14;99.01;99489.50;4103242;28;20851;-59
2023/05/03 01:20:44;;;;;;;6.70;6.13;;;;;;;7.17;98.75;99489.09;4107757;28;20214;-58
2023/05/03 01:22:57;;;;;;;6.28;5.78;;;;;;;7.19;98.25;99487.00;4124836;28;20206;-59
2023/05/03 01:25:04;;;;;;;6.10;5.70;;;;;;;7.11;98.50;99479.03;4125376;28;20206;-58
2023/05/03 01:27:05;;;;;;;6.07;5.68;;;;;;;7.08;98.89;99482.19;4125224;28;20194;-59
2023/05/03 01:29:07;;;;;;;6.50;5.93;;;;;;;7.06;98.72;99486.97;4123586;28;20262;-58
2023/05/03 01:31:09;;;;;;;5.35;4.85;;;;;;;7.04;98.40;99481.75;4122297;28;20199;-59
2023/05/03 01:33:19;;;;;;;6.80;6.20;;;;;;;6.95;98.26;99484.84;4107093;28;20211;-58
2023/05/03 01:35:40;;;;;;;5.63;5.22;;;;;;;7.03;98.85;99477.31;4124095;28;20198;-59
2023/05/03 01:37:42;;;;;;;7.55;6.35;;;;;;;7.03;98.85;99481.94;4125616;28;20212;-57
2023/05/03 01:39:59;;;;;;;6.65;6.05;;;;;;;6.97;98.89;99477.31;4125366;28;20218;-57
2023/05/03 01:42:03;;;;;;;7.18;6.45;;;;;;;6.90;98.69;99477.25;4124402;28;20205;-57
2023/05/03 01:44:04;;;;;;;8.52;7.78;;;;;;;6.82;98.89;99471.19;4107698;28;20853;-59
2023/05/03 01:46:06;;;;;;;7.32;6.72;;;;;;;6.80;99.10;99475.97;4108268;28;20844;-58
2023/05/03 01:48:10;;;;;;;12.05;9.00;;;;;;;6.85;99.31;99484.38;4105999;28;20293;-58
2023/05/03 01:50:11;;;;;;;10.20;8.82;;;;;;;6.87;98.78;99480.41;4124865;28;20222;-59
2023/05/03 01:52:13;;;;;;;8.57;7.78;;;;;;;6.84;98.60;99478.09;4121187;28;20216;-59
2023/05/03 01:54:15;;;;;;;8.60;7.90;;;;;;;6.82;99.27;99484.78;4123832;28;20206;-58
2023/05/03 01:56:16;;;;;;;7.00;6.40;;;;;;;6.73;99.08;99480.53;4124308;28;20198;-58
2023/05/03 01:58:18;;;;;;;6.97;6.30;;;;;;;6.90;98.18;99490.06;4123758;28;20969;-59
2023/05/03 02:00:20;;;;;;;7.45;6.47;;;;;;;6.66;98.65;99485.13;4124865;28;20225;-59
2023/05/03 02:02:21;;;;;;;6.63;6.05;;;;;;;6.58;99.14;99490.72;4128020;28;20646;-59
2023/05/03 02:04:23;;;;;;;6.15;5.55;;;;;;;6.62;98.88;99494.72;4124429;28;20244;-59
2023/05/03 02:06:24;;;;;;;7.25;6.55;;;;;;;6.59;99.64;99501.41;4123175;28;20214;-59
2023/05/03 02:08:26;;;;;;;9.52;5.95;;;;;;;6.64;99.49;99503.53;4122318;28;20693;-59
2023/05/03 02:10:28;;;;;;;8.07;7.00;;;;;;;6.58;99.77;99504.31;4124065;28;20206;-59
2023/05/03 02:12:29;;;;;;;8.45;6.68;;;;;;;6.59;98.93;99497.84;4106135;28;20286;-59
2023/05/03 02:14:31;;;;;;;7.45;6.28;;;;;;;6.56;99.26;99504.50;4123496;28;20294;-59
2023/05/03 02:16:33;;;;;;;6.93;6.43;;;;;;;6.45;99.59;99498.81;4105659;28;20248;-59
2023/05/03 02:18:35;;;;;;;6.60;6.10;;;;;;;6.52;99.71;99505.13;4123849;28;20591;-59
2023/05/03 02:20:37;;;;;;;8.52;5.75;;;;;;;6.46;99.32;99503.19;4122967;28;20927;-58
2023/05/03 02:22:38;;;;;;;5.32;4.88;;;;;;;6.56;99.46;99500.97;4123837;28;20216;-59
2023/05/03 02:24:40;;;;;;;5.30;4.90;;;;;;;6.46;99.76;99505.91;4121733;28;20249;-59
2023/05/03 02:26:41;;;;;;;5.30;4.70;;;;;;;6.44;99.82;99508.84;4124013;28;20905;-59
2023/05/03 02:28:43;;;;;;;3.65;3.35;;;;;;;6.51;100.00;99512.44;4106762;28;20226;-59
2023/05/03 02:30:44;;;;;;;5.00;3.92;;;;;;;6.45;100.00;99504.25;4122679;28;20202;-59
2023/05/03 02:32:46;;;;;;;5.15;4.50;;;;;;;6.35;100.00;99520.91;4123076;28;20210;-59
2023/05/03 02:34:48;;;;;;;4.55;4.20;;;;;;;6.36;100.00;99513.59;4123061;28;20260;-58
2023/05/03 02:36:50;;;;;;;4.90;4.50;;;;;;;6.26;100.00;99523.97;4106796;28;20214;-59
2023/05/03 02:38:51;;;;;;;6.35;3.13;;;;;;;6.20;100.00;99516.59;4123327;28;20228;-59
2023/05/03 02:40:53;;;;;;;3.83;3.50;;;;;;;6.16;100.00;99518.88;4121301;28;20210;-59
2023/05/03 02:42:54;;;;;;;7.07;4.13;;;;;;;6.11;100.00;99515.94;4106945;28;20203;-59
2023/05/03 02:44:56;;;;;;;4.45;3.40;;;;;;;6.12;100.00;99508.59;4123455;28;20595;-59
2023/05/03 02:46:58;;;;;;;6.32;4.05;;;;;;;6.08;100.00;99504.63;4122204;28;20336;-59
2023/05/03 02:48:59;;;;;;;11.27;4.07;;;;;;;6.03;100.00;99510.63;4122807;28;20237;-59
2023/05/03 02:51:02;;;;;;;9.02;4.82;;;;;;;6.07;100.00;99513.78;4122488;28;20666;-59
2023/05/03 02:53:03;;;;;;;9.35;4.50;;;;;;;6.11;100.00;99506.94;4123154;28;20202;-59
2023/05/03 02:55:05;;;;;;;4.82;4.43;;;;;;;6.03;100.00;99504.38;4123655;28;20206;-59
2023/05/03 02:57:07;;;;;;;4.95;4.43;;;;;;;6.00;100.00;99499.31;4127457;28;20399;-58
2023/05/03 02:59:08;;;;;;;4.95;4.45;;;;;;;6.04;100.00;99506.03;4128120;28;20719;-59
2023/05/03 03:01:10;;;;;;;3.75;3.42;;;;;;;6.03;100.00;99507.91;4126015;28;20212;-59
2023/05/03 03:03:11;;;;;;;13.73;4.55;;;;;;;6.02;100.00;99502.69;4127082;28;20235;-59
2023/05/03 03:05:13;;;;;;;4.47;4.10;;;;;;;6.04;100.00;99508.75;4127453;28;20297;-59
2023/05/03 03:07:15;;;;;;;7.72;4.75;;;;;;;5.99;100.00;99508.50;4126579;28;20231;-59
2023/05/03 03:09:16;;;;;;;5.85;4.65;;;;;;;6.10;100.00;99505.25;4119939;28;20234;-59
2023/05/03 03:11:18;;;;;;;4.63;4.22;;;;;;;6.09;99.58;99509.00;4106152;28;20214;-59
2023/05/03 03:13:19;;;;;;;4.38;4.07;;;;;;;5.93;100.00;99504.69;4122332;28;20210;-59
2023/05/03 03:15:21;;;;;;;6.32;4.13;;;;;;;5.92;100.00;99507.59;4121226;28;22182;-59
2023/05/03 03:17:23;;;;;;;4.90;3.60;;;;;;;6.00;100.00;99505.59;4107653;28;20225;-59
2023/05/03 03:19:24;;;;;;;3.70;3.40;;;;;;;5.89;100.00;99499.88;4121040;28;20284;-59
2023/05/03 03:21:27;;;;;;;3.70;3.47;;;;;;;5.80;100.00;99499.16;4121727;28;20213;-59
2023/05/03 03:23:29;;;;;;;5.03;4.63;;;;;;;5.75;100.00;99495.31;4121803;28;20723;-59
2023/05/03 03:25:31;;;;;;;5.85;4.05;;;;;;;5.75;100.00;99495.31;4120203;28;20220;-59
2023/05/03 03:27:32;;;;;;;4.88;4.45;;;;;;;5.72;100.00;99502.00;4106817;28;20211;-59
2023/05/03 03:29:34;;;;;;;4.00;3.60;;;;;;;5.69;100.00;99498.81;4125265;28;20700;-59
2023/05/03 03:31:35;;;;;;;4.82;4.40;;;;;;;5.69;100.00;99501.53;4124133;28;20244;-59
2023/05/03 03:33:37;;;;;;;4.25;3.95;;;;;;;5.69;100.00;99506.97;4123123;28;20312;-59
2023/05/03 03:35:39;;;;;;;6.50;4.38;;;;;;;5.65;100.00;99500.22;4123345;28;20202;-60
2023/05/03 03:37:40;;;;;;;5.68;5.13;;;;;;;5.66;100.00;99491.91;4123848;28;20202;-59
2023/05/03 03:39:42;;;;;;;5.05;4.53;;;;;;;5.67;100.00;99492.72;4123087;28;20226;-60
2023/05/03 03:41:43;;;;;;;4.95;4.53;;;;;;;5.78;100.00;99493.06;4105698;28;20216;-60
2023/05/03 03:43:45;;;;;;;4.38;3.97;;;;;;;5.71;100.00;99494.03;4119740;28;20224;-60
2023/05/03 03:45:47;;;;;;;5.25;4.85;;;;;;;5.61;100.00;99490.78;4121136;28;20576;-59
2023/05/03 03:47:48;;;;;;;4.70;4.30;;;;;;;5.77;99.87;99493.25;4122124;28;20647;-59
2023/05/03 03:49:52;;;;;;;4.60;4.30;;;;;;;5.43;100.00;99490.44;4104964;28;20227;-60
2023/05/03 03:51:54;;;;;;;4.53;4.20;;;;;;;5.55;100.00;99489.69;4123103;28;20210;-59
2023/05/03 03:53:55;;;;;;;6.75;4.93;;;;;;;5.50;100.00;99494.03;4122637;28;20203;-59
2023/05/03 03:55:57;;;;;;;6.38;4.57;;;;;;;5.47;100.00;99491.69;4128950;28;20261;-59
2023/05/03 03:57:58;;;;;;;8.90;4.28;;;;;;;5.43;100.00;99493.13;4127470;28;20212;-59
2023/05/03 04:00:02;;;;;;;5.28;4.32;;;;;;;5.45;100.00;99494.63;4126826;28;20267;-59
2023/05/03 04:02:04;;;;;;;4.88;4.47;;;;;;;5.43;100.00;99501.28;4124977;28;20229;-61
2023/05/03 04:04:06;;;;;;;6.35;4.45;;;;;;;5.40;100.00;99490.78;4109911;28;20202;-60
2023/05/03 04:06:08;;;;;;;5.78;4.68;;;;;;;5.36;100.00;99487.63;4123974;28;20214;-59
2023/05/03 04:08:10;;;;;;;5.57;5.10;;;;;;;5.27;100.00;99496.94;4112908;28;20249;-59
2023/05/03 04:10:11;;;;;;;5.50;5.00;;;;;;;5.32;100.00;99499.06;4113882;28;20716;-59
2023/05/03 04:12:13;;;;;;;5.82;5.15;;;;;;;5.39;100.00;99499.97;4129653;28;20688;-60
2023/05/03 04:14:14;;;;;;;7.50;5.07;;;;;;;5.45;100.00;99499.19;4128983;28;20234;-58
2023/05/03 04:16:16;;;;;;;5.20;4.72;;;;;;;5.38;100.00;99503.72;4129367;28;20689;-60
2023/05/03 04:18:17;;;;;;;7.70;5.43;;;;;;;5.31;100.00;99508.25;4128431;28;20213;-59
2023/05/03 04:20:20;;;;;;;4.95;4.63;;;;;;;5.27;100.00;99504.22;4128011;28;20301;-60
2023/05/03 04:22:21;;;;;;;5.97;5.47;;;;;;;5.20;100.00;99495.16;4128583;28;20237;-60
2023/05/03 04:24:23;;;;;;;5.55;5.10;;;;;;;5.27;100.00;99506.94;4110545;28;20211;-60
2023/05/03 04:26:24;;;;;;;6.00;5.57;;;;;;;5.32;100.00;99499.91;4129660;28;20863;-60
2023/05/03 04:28:32;;;;;;;5.93;5.45;;;;;;;5.34;100.00;99499.72;4128856;28;20245;-59
2023/05/03 04:30:34;;;;;;;6.53;5.93;;;;;;;5.30;100.00;99503.84;4127682;28;20264;-60
2023/05/03 04:32:36;;;;;;;19.05;5.72;;;;;;;5.35;100.00;99498.69;4128856;28;20269;-60
2023/05/03 04:34:38;;;;;;;6.40;5.50;;;;;;;5.26;100.00;99505.25;4127306;28;20255;-59
2023/05/03 04:36:44;;;;;;;6.78;6.18;;;;;;;5.25;100.00;99503.59;4129099;28;20212;-63
2023/05/03 04:38:45;;;;;;;5.82;5.25;;;;;;;5.20;100.00;99503.31;4127466;28;20206;-60
2023/05/03 04:40:47;;;;;;;7.53;6.57;;;;;;;5.16;100.00;99510.16;4128567;28;20206;-60
2023/05/03 04:42:49;;;;;;;5.80;5.32;;;;;;;5.13;100.00;99505.97;4129086;28;20680;-60
2023/05/03 04:44:50;;;;;;;6.78;6.25;;;;;;;5.15;100.00;99505.78;4128900;28;20919;-60
2023/05/03 04:46:52;;;;;;;5.95;5.38;;;;;;;5.32;100.00;99509.91;4129297;28;20210;-59
2023/05/03 04:48:53;;;;;;;6.93;6.18;;;;;;;5.33;100.00;99507.03;4128415;28;20332;-59
2023/05/03 04:50:55;;;;;;;7.10;6.55;;;;;;;5.29;100.00;99504.91;4128063;28;20226;-59
2023/05/03 04:52:57;;;;;;;8.48;7.03;;;;;;;5.30;100.00;99509.28;4127892;28;20210;-59
2023/05/03 04:54:58;;;;;;;8.10;7.28;;;;;;;5.30;100.00;99498.44;4128249;28;21697;-59
2023/05/03 04:57:00;;;;;;;8.60;7.70;;;;;;;5.36;100.00;99500.38;4127493;28;20249;-60
2023/05/03 04:59:03;;;;;;;8.32;7.40;;;;;;;5.37;100.00;99496.63;4128524;28;20228;-60
2023/05/03 05:01:05;;;;;;;6.78;6.18;;;;;;;5.41;100.00;99500.59;4129258;28;20574;-60
2023/05/03 05:03:08;;;;;;;8.70;4.57;;;;;;;5.37;100.00;99492.00;4129651;28;20420;-59
2023/05/03 05:05:09;;;;;;;5.75;5.25;;;;;;;5.52;100.00;99495.53;4129679;28;20230;-60
2023/05/03 05:07:12;;;;;;;6.22;5.72;;;;;;;5.48;100.00;99496.94;4128613;28;20213;-59
2023/05/03 05:09:21;;;;;;;6.00;5.38;;;;;;;5.51;100.00;99496.56;4127888;28;20925;-59
2023/05/03 05:11:22;;;;;;;6.05;5.45;;;;;;;5.60;100.00;99494.53;4126767;28;20340;-61
2023/05/03 05:13:24;;;;;;;8.50;5.55;;;;;;;5.63;100.00;99497.72;4127174;28;20206;-59
2023/05/03 05:15:26;;;;;;;7.18;6.45;;;;;;;5.67;100.00;99503.59;4127830;28;20202;-59
2023/05/03 05:17:28;;;;;;;7.88;5.10;;;;;;;5.71;100.00;99497.59;4127321;28;20654;-60
2023/05/03 05:19:29;;;;;;;9.48;7.13;;;;;;;5.56;100.00;99501.41;4125626;28;20252;-60
2023/05/03 05:21:31;;;;;;;10.55;6.82;;;;;;;5.75;100.00;99500.75;4127987;28;20589;-58
2023/05/03 05:23:32;;;;;;;6.95;6.03;;;;;;;5.90;100.00;99498.81;4126459;28;20550;-59
2023/05/03 05:25:34;;;;;;;5.65;5.25;;;;;;;5.90;100.00;99504.25;4127922;28;20221;-59
2023/05/03 05:27:36;;;;;;;6.57;6.03;;;;;;;5.89;100.00;99508.00;4124536;28;20210;-59
2023/05/03 05:29:37;;;;;;;13.93;7.28;;;;;;;6.03;100.00;99498.94;4126599;28;20238;-59
2023/05/03 05:31:39;;;;;;;6.50;5.75;;;;;;;6.20;100.00;99506.59;4128303;28;20741;-59
2023/05/03 05:33:41;;;;;;;8.27;6.30;;;;;;;6.26;100.00;99513.09;4126388;28;20577;-60
2023/05/03 05:35:44;;;;;;;10.77;7.68;;;;;;;6.33;100.00;99512.13;4128057;28;20209;-59
2023/05/03 05:37:45;;;;;;;7.45;6.75;;;;;;;6.43;100.00;99495.44;4111410;28;20210;-60
2023/05/03 05:39:47;;;;;;;19.67;7.18;;;;;;;6.54;100.00;99505.75;4126168;28;20230;-60
2023/05/03 05:41:49;;;;;;;9.30;7.32;;;;;;;6.90;100.00;99503.66;4127555;28;20233;-60
2023/05/03 05:43:50;;;;;;;11.02;7.90;;;;;;;7.20;100.00;99505.00;4127377;28;20202;-60
2023/05/03 05:45:52;;;;;;;10.40;6.97;;;;;;;7.43;100.00;99500.06;4127653;28;20209;-59
2023/05/03 05:47:53;;;;;;;13.40;6.43;;;;;;;7.51;100.00;99502.59;4127951;28;20662;-60
2023/05/03 05:49:55;;;;;;;11.48;7.45;;;;;;;7.69;100.00;99486.50;4127519;28;20718;-60
2023/05/03 05:51:57;;;;;;;7.35;6.75;;;;;;;7.63;99.32;99485.41;4109159;28;20210;-60
2023/05/03 05:53:58;;;;;;;7.78;6.75;;;;;;;7.76;99.34;99490.06;4127959;28;20217;-60
2023/05/03 05:56:00;;;;;;;10.40;7.05;;;;;;;8.05;99.01;99495.09;4127537;28;20206;-60
2023/05/03 05:58:01;;;;;;;7.22;6.60;;;;;;;8.23;98.96;99490.69;4125719;28;20206;-60
2023/05/03 06:00:13;;;;;;;12.80;7.47;;;;;;;8.26;95.46;99489.44;4126851;28;20406;-60
2023/05/03 06:02:15;;;;;;;7.70;6.07;;;;;;;8.33;97.65;99482.09;4126071;28;20214;-60
2023/05/03 06:04:17;;;;;;;6.28;5.43;;;;;;;8.53;95.06;99499.25;4109373;28;20210;-59
2023/05/03 06:06:18;;;;;;;7.90;6.35;;;;;;;8.63;94.63;99499.66;4125051;28;20675;-60
2023/05/03 06:08:20;;;;;;;6.57;5.82;;;;;;;8.82;94.53;99506.97;4124736;28;20253;-60
2023/05/03 06:10:22;;;;;;;10.52;5.85;;;;;;;8.99;93.66;99508.16;4127088;28;20257;-60
2023/05/03 06:12:23;;;;;;;6.05;5.55;;;;;;;9.00;92.38;99512.56;4125679;28;20957;-60
2023/05/03 06:14:25;;;;;;;5.72;5.18;;;;;;;9.14;93.02;99514.22;4127260;28;20209;-60
2023/05/03 06:16:26;;;;;;;6.38;5.78;;;;;;;9.24;92.20;99514.56;4125995;28;20297;-60
2023/05/03 06:18:28;;;;;;;5.47;4.97;;;;;;;9.26;92.47;99507.84;4126881;28;20208;-59
2023/05/03 06:20:30;;;;;;;6.93;5.78;;;;;;;9.40;91.70;99523.09;4126976;28;20598;-60
2023/05/03 06:22:31;;;;;;;9.35;6.82;;;;;;;9.41;91.59;99522.03;4126319;28;20678;-60
2023/05/03 06:24:33;;;;;;;8.73;6.50;;;;;;;9.33;90.19;99530.50;4127260;28;20317;-60
2023/05/03 06:26:34;;;;;;;6.35;5.82;;;;;;;9.31;90.25;99527.16;4109646;28;20245;-60
2023/05/03 06:28:36;;;;;;;6.60;5.90;;;;;;;9.60;89.50;99525.72;4124153;28;20733;-60
2023/05/03 06:30:37;;;;;;;5.82;5.30;;;;;;;9.75;89.75;99535.28;4126377;28;20309;-60
2023/05/03 06:32:40;;;;;;;7.63;5.65;;;;;;;9.89;89.57;99533.31;4127517;28;20209;-60
2023/05/03 06:34:42;;;;;;;6.65;5.60;;;;;;;9.94;88.38;99533.50;4126357;28;20634;-59
2023/05/03 06:36:43;;;;;;;6.18;5.30;;;;;;;9.95;89.14;99535.19;4125331;28;20692;-60
2023/05/03 06:38:45;;;;;;;5.85;5.15;;;;;;;10.13;88.53;99538.00;4125961;28;20240;-59
2023/05/03 06:40:47;;;;;;;6.13;5.57;;;;;;;10.21;86.99;99529.53;4125809;28;20558;-60
2023/05/03 06:42:48;;;;;;;5.97;5.45;;;;;;;10.48;87.47;99537.28;4126472;28;20213;-59
2023/05/03 06:44:50;;;;;;;6.18;5.60;;;;;;;10.17;85.04;99534.63;4127208;28;20230;-60
2023/05/03 06:46:51;;;;;;;7.68;6.43;;;;;;;10.40;85.93;99539.44;4126658;28;20206;-60
2023/05/03 06:48:56;;;;;;;6.70;6.00;;;;;;;10.36;84.38;99532.78;4124762;28;20222;-60
2023/05/03 06:50:58;;;;;;;8.45;5.18;;;;;;;10.33;84.83;99525.84;4125764;28;20268;-59
2023/05/03 06:52:59;;;;;;;5.22;4.88;;;;;;;10.13;84.44;99524.31;4107668;28;20257;-60
2023/05/03 06:55:01;;;;;;;11.95;5.32;;;;;;;10.46;83.66;99522.13;4126240;28;20207;-60
2023/05/03 06:57:04;;;;;;;4.90;4.55;;;;;;;10.22;82.63;99526.56;4126531;28;20194;-60
2023/05/03 06:59:07;;;;;;;9.55;5.18;;;;;;;10.02;86.58;99525.84;4124938;28;20249;-60
2023/05/03 07:01:08;;;;;;;6.15;4.90;;;;;;;10.42;83.33;99523.66;4126006;28;20233;-60
2023/05/03 07:03:10;;;;;;;5.75;5.25;;;;;;;10.83;84.45;99520.06;4125723;28;20206;-60
2023/05/03 07:05:12;;;;;;;6.65;4.70;;;;;;;11.26;84.09;99515.38;4105717;28;20672;-59
2023/05/03 07:07:14;;;;;;;7.00;5.75;;;;;;;11.02;82.92;99516.28;4125129;28;20677;-60
2023/05/03 07:09:17;;;;;;;7.63;5.35;;;;;;;11.24;82.18;99512.00;4126138;28;20230;-59
2023/05/03 07:11:26;;;;;;;7.47;5.72;;;;;;;10.88;80.82;99513.91;4109468;28;20226;-60
2023/05/03 07:13:28;;;;;;;6.72;5.00;;;;;;;11.04;81.71;99514.13;4125379;28;20202;-60
2023/05/03 07:15:30;;;;;;;6.07;5.47;;;;;;;11.35;81.45;99513.97;4125481;28;20794;-60
2023/05/03 07:17:31;;;;;;;7.18;5.60;;;;;;;10.71;79.67;99509.25;4126921;28;20206;-59
2023/05/03 07:19:33;;;;;;;11.32;5.00;;;;;;;11.17;80.26;99511.25;4124365;28;20316;-59
2023/05/03 07:21:35;;;;;;;8.35;4.60;;;;;;;11.63;80.32;99511.50;4126423;28;20209;-58
2023/05/03 07:23:36;;;;;;;5.93;4.35;;;;;;;11.68;77.77;99513.53;4127630;28;20214;-59
2023/05/03 07:25:38;;;;;;;5.57;5.10;;;;;;;11.46;76.61;99515.94;4127665;28;20209;-58
2023/05/03 07:27:39;;;;;;;6.85;4.45;;;;;;;11.42;79.31;99517.47;4128247;28;20242;-60
2023/05/03 07:29:41;;;;;;;8.18;5.10;;;;;;;11.56;79.06;99518.97;4130665;28;20238;-60
2023/05/03 07:31:43;;;;;;;5.72;5.18;;;;;;;11.67;79.79;99509.13;4130174;28;20210;-60
2023/05/03 07:33:45;;;;;;;6.35;5.13;;;;;;;12.26;76.64;99506.31;4110950;28;20639;-60
2023/05/03 07:35:47;;;;;;;6.45;4.82;;;;;;;12.45;75.41;99513.38;4129673;28;20648;-60
2023/05/03 07:37:49;;;;;;;6.80;5.15;;;;;;;12.24;74.88;99503.78;4128377;28;20222;-60
2023/05/03 07:39:51;;;;;;;7.85;5.25;;;;;;;12.61;75.96;99504.41;4128315;28;20605;-59
2023/05/03 07:41:53;;;;;;;5.85;4.18;;;;;;;12.52;76.01;99506.72;4127311;28;20566;-60
2023/05/03 07:43:54;;;;;;;9.52;5.75;;;;;;;12.22;75.42;99494.97;4129141;28;20286;-60
2023/05/03 07:45:56;;;;;;;5.88;5.38;;;;;;;12.07;76.00;99502.81;4111425;28;20577;-59
2023/05/03 07:47:57;;;;;;;7.78;5.18;;;;;;;12.06;76.92;99500.31;4107012;28;20290;-60
2023/05/03 07:50:00;;;;;;;8.23;4.82;;;;;;;12.33;76.69;99499.66;4128867;28;20233;-60
2023/05/03 07:52:02;;;;;;;6.13;5.55;;;;;;;12.46;74.60;99496.66;4128964;28;20237;-59
2023/05/03 07:54:04;;;;;;;6.57;5.63;;;;;;;12.37;75.34;99498.09;4127529;28;20236;-60
2023/05/03 07:56:06;;;;;;;6.47;4.88;;;;;;;12.62;76.73;99495.94;4128223;28;20297;-60
2023/05/03 07:58:08;;;;;;;7.18;5.07;;;;;;;12.86;76.41;99500.38;4110575;28;20277;-60
2023/05/03 08:00:11;;;;;;;5.60;4.95;;;;;;;13.43;74.75;99504.09;4129336;28;20245;-60
2023/05/03 08:02:12;;;;;;;6.78;4.72;;;;;;;13.00;74.65;99504.56;4126793;28;20294;-60
2023/05/03 08:04:14;;;;;;;5.90;5.35;;;;;;;12.61;74.12;99505.25;4111229;28;20261;-60
2023/05/03 08:06:16;;;;;;;8.05;5.65;;;;;;;12.79;74.42;99504.28;4129147;28;20772;-60
2023/05/03 08:08:18;;;;;;;11.15;5.72;;;;;;;13.21;75.46;99501.16;4127347;28;20202;-60
2023/05/03 08:10:20;;;;;;;6.60;4.88;;;;;;;13.41;71.85;99506.22;4128185;28;20252;-59
2023/05/03 08:12:22;;;;;;;6.68;5.88;;;;;;;12.95;72.45;99507.19;4128019;28;20202;-60
2023/05/03 08:14:24;;;;;;;6.50;4.63;;;;;;;13.27;70.59;99508.44;4109969;28;20259;-60
2023/05/03 08:16:25;;;;;;;5.43;4.60;;;;;;;12.90;71.35;99504.28;4127514;28;20209;-59
2023/05/03 08:18:27;;;;;;;6.15;5.07;;;;;;;13.15;73.41;99496.63;4128047;28;20357;-59
2023/05/03 08:20:29;;;;;;;5.22;4.75;;;;;;;13.73;72.09;99505.53;4128855;28;20693;-60
2023/05/03 08:22:31;;;;;;;5.22;4.70;;;;;;;13.27;70.66;99516.69;4126980;28;20903;-59
2023/05/03 08:24:33;;;;;;;7.30;6.47;;;;;;;13.57;70.09;99511.78;4127053;28;20221;-59
2023/05/03 08:26:35;;;;;;;6.82;6.13;;;;;;;13.33;69.96;99507.47;4128710;28;20249;-59
2023/05/03 08:28:37;;;;;;;5.38;4.90;;;;;;;13.32;70.32;99507.69;4109352;28;20262;-59
2023/05/03 08:30:39;;;;;;;8.38;5.03;;;;;;;13.41;72.51;99509.81;4127049;28;20230;-59
2023/05/03 08:32:41;;;;;;;6.50;5.20;;;;;;;14.36;71.86;99497.88;4129386;28;20642;-59
2023/05/03 08:34:43;;;;;;;6.28;5.38;;;;;;;13.86;68.56;99499.72;4129228;28;20214;-60
2023/05/03 08:36:44;;;;;;;6.53;5.05;;;;;;;14.63;71.13;99504.38;4128723;28;20210;-60
2023/05/03 08:38:46;;;;;;;5.93;5.13;;;;;;;14.62;68.69;99499.13;4127049;28;20217;-58
2023/05/03 08:40:50;;;;;;;5.88;5.32;;;;;;;14.54;68.53;99503.13;4129906;28;20249;-59
2023/05/03 08:42:53;;;;;;;5.88;5.35;;;;;;;14.82;65.35;99494.75;4111624;28;20649;-59
2023/05/03 08:44:54;;;;;;;8.45;4.47;;;;;;;15.13;66.73;99485.81;4111014;28;20250;-60
2023/05/03 08:46:58;;;;;;;6.60;5.03;;;;;;;14.97;64.56;99492.19;4128445;28;20236;-59
2023/05/03 08:49:00;;;;;;;5.35;4.35;;;;;;;15.19;66.21;99498.59;4109076;28;20289;-60
2023/05/03 08:51:03;;;;;;;8.23;4.53;;;;;;;14.76;63.88;99484.72;4128639;28;20248;-59
2023/05/03 08:53:05;;;;;;;5.22;3.90;;;;;;;15.49;65.54;99490.72;4128234;28;20670;-59
2023/05/03 08:55:08;;;;;;;6.15;4.50;;;;;;;15.13;63.49;99485.81;4111853;28;21137;-60
2023/05/03 08:57:10;;;;;;;4.88;4.35;;;;;;;15.54;61.58;99489.94;4129384;28;20598;-59
2023/05/03 08:59:12;;;;;;;6.18;4.22;;;;;;;14.75;63.95;99483.06;4113475;28;20238;-59
2023/05/03 09:01:14;;;;;;;3.88;3.40;;;;;;;15.28;65.21;99480.50;4129639;28;20190;-60
2023/05/03 09:03:16;;;;;;;5.35;4.95;;;;;;;15.16;63.93;99482.53;4129109;28;20214;-60
2023/05/03 09:05:17;;;;;;;5.82;4.25;;;;;;;15.16;63.63;99490.81;4129328;28;20248;-59
2023/05/03 09:07:19;;;;;;;6.55;4.45;;;;;;;15.34;64.66;99482.25;4129326;28;20609;-59
2023/05/03 09:09:30;;;;;;;7.60;5.80;;;;;;;15.63;64.20;99489.22;4129245;28;20229;-60
2023/05/03 09:11:33;;;;;;;5.95;4.78;;;;;;;15.88;62.80;99489.50;4110584;28;20305;-60
2023/05/03 09:13:34;;;;;;;4.93;4.47;;;;;;;15.48;62.89;99483.53;4125769;28;20243;-59
2023/05/03 09:15:36;;;;;;;6.53;4.50;;;;;;;15.44;62.81;99482.38;4127639;28;20206;-60
2023/05/03 09:17:38;;;;;;;6.78;4.00;;;;;;;15.41;63.06;99482.03;4127753;28;20271;-58
2023/05/03 09:20:07;;;;;;;5.65;5.13;;;;;;;15.40;62.84;99489.50;4109252;28;20222;-58
2023/05/03 09:22:10;;;;;;;8.23;5.03;;;;;;;15.10;64.79;99486.31;4126030;28;20242;-60
2023/05/03 09:24:18;;;;;;;5.93;5.18;;;;;;;15.21;64.85;99490.88;4107670;28;20207;-60
2023/05/03 09:26:30;;;;;;;5.70;5.03;;;;;;;14.94;65.20;99487.19;4111097;28;20298;-60
2023/05/03 09:28:41;;;;;;;6.97;5.40;;;;;;;14.73;64.59;99485.25;4126663;28;20732;-60
2023/05/03 09:30:43;;;;;;;5.57;4.63;;;;;;;15.44;66.82;99476.84;4125398;28;20340;-60
2023/05/03 09:32:48;;;;;;;8.23;4.70;;;;;;;14.94;64.45;99473.41;4127234;28;20297;-60
2023/05/03 09:34:50;;;;;;;6.55;4.32;;;;;;;16.19;66.97;99468.53;4127778;28;20222;-60
2023/05/03 09:36:52;;;;;;;5.18;4.15;;;;;;;15.75;63.87;99472.53;4127875;28;20249;-60
2023/05/03 09:38:54;;;;;;;5.57;4.55;;;;;;;16.09;62.69;99474.78;4126849;28;20234;-60
2023/05/03 09:40:56;;;;;;;5.40;4.90;;;;;;;16.08;61.87;99473.13;4126501;28;20206;-60